sensor_id;sensor_type;location;lat;lon;timestamp;P1;durP1;ratioP1;P2;durP2;ratioP2
71091;SDS011;58751;50.708;7.134;2022-07-22T00:01:38;11.53;;;10.33;;
71091;SDS011;58751;50.708;7.134;2022-07-22T00:04:04;11.00;;;9.87;;
71091;SDS011;58751;50.708;7.134;2022-07-22T00:06:29;10.40;;;9.50;;
71091;SDS011;58751;50.708;7.134;2022-07-22T00:08:54;13.33;;;9.60;;
71091;SDS011;58751;50.708;7.134;2022-07-22T00:11:21;10.57;;;9.43;;
71091;SDS011;58751;50.708;7.134;2022-07-22T00:13:47;12.07;;;10.30;;
71091;SDS011;58751;50.708;7.134;2022-07-22T00:16:12;10.50;;;9.57;;
71091;SDS011;58751;50.708;7.134;2022-07-22T00:18:37;11.90;;;9.47;;
71091;SDS011;58751;50.708;7.134;2022-07-22T00:21:03;9.43;;;8.70;;
71091;SDS011;58751;50.708;7.134;2022-07-22T00:23:28;11.60;;;10.50;;
71091;SDS011;58751;50.708;7.134;2022-07-22T00:25:53;9.70;;;8.80;;
71091;SDS011;58751;50.708;7.134;2022-07-22T00:28:20;9.20;;;8.30;;
71091;SDS011;58751;50.708;7.134;2022-07-22T00:30:45;11.80;;;8.93;;
71091;SDS011;58751;50.708;7.134;2022-07-22T00:33:11;9.10;;;8.20;;
71091;SDS011;58751;50.708;7.134;2022-07-22T00:35:36;10.97;;;9.87;;
71091;SDS011;58751;50.708;7.134;2022-07-22T00:38:01;10.37;;;9.20;;
71091;SDS011;58751;50.708;7.134;2022-07-22T00:40:26;9.93;;;8.93;;
71091;SDS011;58751;50.708;7.134;2022-07-22T00:42:52;10.77;;;9.13;;
71091;SDS011;58751;50.708;7.134;2022-07-22T00:45:18;10.73;;;9.60;;
71091;SDS011;58751;50.708;7.134;2022-07-22T00:47:44;12.93;;;8.77;;
71091;SDS011;58751;50.708;7.134;2022-07-22T00:50:10;9.40;;;8.60;;
71091;SDS011;58751;50.708;7.134;2022-07-22T00:52:35;11.33;;;9.37;;
71091;SDS011;58751;50.708;7.134;2022-07-22T00:55:02;9.73;;;8.23;;
71091;SDS011;58751;50.708;7.134;2022-07-22T00:57:27;10.47;;;8.23;;
71091;SDS011;58751;50.708;7.134;2022-07-22T00:59:53;9.93;;;8.93;;
71091;SDS011;58751;50.708;7.134;2022-07-22T01:02:19;8.10;;;7.47;;
71091;SDS011;58751;50.708;7.134;2022-07-22T01:04:45;9.63;;;8.60;;
71091;SDS011;58751;50.708;7.134;2022-07-22T01:07:10;17.37;;;9.30;;
71091;SDS011;58751;50.708;7.134;2022-07-22T01:09:36;12.00;;;8.77;;
71091;SDS011;58751;50.708;7.134;2022-07-22T01:12:01;12.87;;;8.80;;
71091;SDS011;58751;50.708;7.134;2022-07-22T01:14:27;10.37;;;8.43;;
71091;SDS011;58751;50.708;7.134;2022-07-22T01:16:52;9.50;;;8.43;;
71091;SDS011;58751;50.708;7.134;2022-07-22T01:19:18;9.03;;;8.10;;
71091;SDS011;58751;50.708;7.134;2022-07-22T01:21:45;13.90;;;8.30;;
71091;SDS011;58751;50.708;7.134;2022-07-22T01:24:10;9.73;;;8.50;;
71091;SDS011;58751;50.708;7.134;2022-07-22T01:26:36;9.73;;;8.83;;
71091;SDS011;58751;50.708;7.134;2022-07-22T01:29:01;13.60;;;9.40;;
71091;SDS011;58751;50.708;7.134;2022-07-22T01:31:26;12.10;;;7.67;;
71091;SDS011;58751;50.708;7.134;2022-07-22T01:33:52;11.73;;;8.20;;
71091;SDS011;58751;50.708;7.134;2022-07-22T01:36:18;12.00;;;7.83;;
71091;SDS011;58751;50.708;7.134;2022-07-22T01:38:44;9.07;;;8.20;;
71091;SDS011;58751;50.708;7.134;2022-07-22T01:41:10;10.60;;;9.60;;
71091;SDS011;58751;50.708;7.134;2022-07-22T01:43:35;10.80;;;8.40;;
71091;SDS011;58751;50.708;7.134;2022-07-22T01:46:00;14.93;;;8.30;;
71091;SDS011;58751;50.708;7.134;2022-07-22T01:48:26;10.40;;;8.87;;
71091;SDS011;58751;50.708;7.134;2022-07-22T01:50:51;10.13;;;8.43;;
71091;SDS011;58751;50.708;7.134;2022-07-22T01:53:16;9.97;;;8.30;;
71091;SDS011;58751;50.708;7.134;2022-07-22T01:55:43;9.03;;;8.13;;
71091;SDS011;58751;50.708;7.134;2022-07-22T01:58:08;11.90;;;8.50;;
71091;SDS011;58751;50.708;7.134;2022-07-22T02:00:33;12.00;;;7.87;;
71091;SDS011;58751;50.708;7.134;2022-07-22T02:02:59;10.33;;;8.00;;
71091;SDS011;58751;50.708;7.134;2022-07-22T02:05:24;11.27;;;8.47;;
71091;SDS011;58751;50.708;7.134;2022-07-22T02:07:49;9.10;;;7.20;;
71091;SDS011;58751;50.708;7.134;2022-07-22T02:10:15;9.00;;;8.10;;
71091;SDS011;58751;50.708;7.134;2022-07-22T02:12:41;11.27;;;8.60;;
71091;SDS011;58751;50.708;7.134;2022-07-22T02:15:07;9.87;;;8.60;;
71091;SDS011;58751;50.708;7.134;2022-07-22T02:17:32;9.80;;;8.80;;
71091;SDS011;58751;50.708;7.134;2022-07-22T02:19:57;9.17;;;8.20;;
71091;SDS011;58751;50.708;7.134;2022-07-22T02:22:22;10.20;;;9.20;;
71091;SDS011;58751;50.708;7.134;2022-07-22T02:24:48;13.93;;;9.13;;
71091;SDS011;58751;50.708;7.134;2022-07-22T02:27:13;12.07;;;8.60;;
71091;SDS011;58751;50.708;7.134;2022-07-22T02:29:40;10.63;;;8.23;;
71091;SDS011;58751;50.708;7.134;2022-07-22T02:32:05;14.40;;;9.10;;
71091;SDS011;58751;50.708;7.134;2022-07-22T02:34:30;14.30;;;8.77;;
71091;SDS011;58751;50.708;7.134;2022-07-22T02:36:56;10.70;;;8.63;;
71091;SDS011;58751;50.708;7.134;2022-07-22T02:39:21;13.67;;;8.67;;
71091;SDS011;58751;50.708;7.134;2022-07-22T02:41:46;16.57;;;9.67;;
71091;SDS011;58751;50.708;7.134;2022-07-22T02:44:11;10.20;;;8.87;;
71091;SDS011;58751;50.708;7.134;2022-07-22T02:46:38;11.50;;;8.83;;
71091;SDS011;58751;50.708;7.134;2022-07-22T02:49:03;9.20;;;8.33;;
71091;SDS011;58751;50.708;7.134;2022-07-22T02:51:28;11.13;;;9.00;;
71091;SDS011;58751;50.708;7.134;2022-07-22T02:53:54;11.37;;;8.67;;
71091;SDS011;58751;50.708;7.134;2022-07-22T02:56:19;8.73;;;7.93;;
71091;SDS011;58751;50.708;7.134;2022-07-22T02:58:44;9.17;;;8.27;;
71091;SDS011;58751;50.708;7.134;2022-07-22T03:01:09;11.50;;;8.93;;
71091;SDS011;58751;50.708;7.134;2022-07-22T03:03:36;10.83;;;9.10;;
71091;SDS011;58751;50.708;7.134;2022-07-22T03:06:01;13.00;;;8.63;;
71091;SDS011;58751;50.708;7.134;2022-07-22T03:08:26;16.90;;;9.20;;
71091;SDS011;58751;50.708;7.134;2022-07-22T03:10:52;13.17;;;10.07;;
71091;SDS011;58751;50.708;7.134;2022-07-22T03:13:17;12.63;;;9.40;;
71091;SDS011;58751;50.708;7.134;2022-07-22T03:15:42;13.03;;;10.00;;
71091;SDS011;58751;50.708;7.134;2022-07-22T03:18:07;11.70;;;8.90;;
71091;SDS011;58751;50.708;7.134;2022-07-22T03:20:34;15.30;;;10.30;;
71091;SDS011;58751;50.708;7.134;2022-07-22T03:22:59;12.53;;;10.47;;
71091;SDS011;58751;50.708;7.134;2022-07-22T03:25:25;9.43;;;8.63;;
71091;SDS011;58751;50.708;7.134;2022-07-22T03:27:50;12.50;;;10.40;;
71091;SDS011;58751;50.708;7.134;2022-07-22T03:30:15;11.63;;;10.43;;
71091;SDS011;58751;50.708;7.134;2022-07-22T03:32:40;11.33;;;9.47;;
71091;SDS011;58751;50.708;7.134;2022-07-22T03:35:06;16.10;;;10.80;;
71091;SDS011;58751;50.708;7.134;2022-07-22T03:37:32;15.83;;;10.70;;
71091;SDS011;58751;50.708;7.134;2022-07-22T03:39:58;10.23;;;9.00;;
71091;SDS011;58751;50.708;7.134;2022-07-22T03:42:23;15.17;;;10.80;;
71091;SDS011;58751;50.708;7.134;2022-07-22T03:44:48;12.73;;;10.47;;
71091;SDS011;58751;50.708;7.134;2022-07-22T03:47:16;10.50;;;9.50;;
71091;SDS011;58751;50.708;7.134;2022-07-22T03:49:42;12.07;;;10.13;;
71091;SDS011;58751;50.708;7.134;2022-07-22T03:52:07;11.33;;;9.73;;
71091;SDS011;58751;50.708;7.134;2022-07-22T03:54:33;12.23;;;10.40;;
71091;SDS011;58751;50.708;7.134;2022-07-22T03:56:59;15.47;;;10.10;;
71091;SDS011;58751;50.708;7.134;2022-07-22T03:59:24;11.53;;;10.43;;
71091;SDS011;58751;50.708;7.134;2022-07-22T04:01:49;16.90;;;10.90;;
71091;SDS011;58751;50.708;7.134;2022-07-22T04:04:14;11.60;;;10.50;;
71091;SDS011;58751;50.708;7.134;2022-07-22T04:06:40;12.67;;;9.07;;
71091;SDS011;58751;50.708;7.134;2022-07-22T04:09:05;9.50;;;8.70;;
71091;SDS011;58751;50.708;7.134;2022-07-22T04:11:31;9.90;;;8.63;;
71091;SDS011;58751;50.708;7.134;2022-07-22T04:13:57;9.80;;;8.80;;
71091;SDS011;58751;50.708;7.134;2022-07-22T04:16:22;12.07;;;8.10;;
71091;SDS011;58751;50.708;7.134;2022-07-22T04:18:47;9.20;;;8.30;;
71091;SDS011;58751;50.708;7.134;2022-07-22T04:21:13;12.03;;;8.70;;
71091;SDS011;58751;50.708;7.134;2022-07-22T04:23:38;9.10;;;8.20;;
71091;SDS011;58751;50.708;7.134;2022-07-22T04:26:03;10.07;;;9.03;;
71091;SDS011;58751;50.708;7.134;2022-07-22T04:28:30;10.80;;;8.33;;
71091;SDS011;58751;50.708;7.134;2022-07-22T04:30:57;10.00;;;7.00;;
71091;SDS011;58751;50.708;7.134;2022-07-22T04:33:22;7.73;;;6.90;;
71091;SDS011;58751;50.708;7.134;2022-07-22T04:35:47;8.77;;;7.23;;
71091;SDS011;58751;50.708;7.134;2022-07-22T04:38:13;8.00;;;7.20;;
71091;SDS011;58751;50.708;7.134;2022-07-22T04:40:38;10.70;;;8.33;;
71091;SDS011;58751;50.708;7.134;2022-07-22T04:43:03;11.53;;;8.87;;
71091;SDS011;58751;50.708;7.134;2022-07-22T04:45:30;13.03;;;7.97;;
71091;SDS011;58751;50.708;7.134;2022-07-22T04:47:55;12.63;;;9.27;;
71091;SDS011;58751;50.708;7.134;2022-07-22T04:50:20;9.07;;;8.27;;
71091;SDS011;58751;50.708;7.134;2022-07-22T04:52:45;8.30;;;7.50;;
71091;SDS011;58751;50.708;7.134;2022-07-22T04:55:11;10.33;;;9.40;;
71091;SDS011;58751;50.708;7.134;2022-07-22T04:57:36;9.57;;;8.73;;
71091;SDS011;58751;50.708;7.134;2022-07-22T05:00:01;9.23;;;8.33;;
71091;SDS011;58751;50.708;7.134;2022-07-22T05:02:28;11.27;;;9.10;;
71091;SDS011;58751;50.708;7.134;2022-07-22T05:04:53;9.43;;;8.50;;
71091;SDS011;58751;50.708;7.134;2022-07-22T05:07:19;10.17;;;8.80;;
71091;SDS011;58751;50.708;7.134;2022-07-22T05:09:44;12.30;;;8.43;;
71091;SDS011;58751;50.708;7.134;2022-07-22T05:12:09;10.27;;;9.20;;
71091;SDS011;58751;50.708;7.134;2022-07-22T05:14:34;8.97;;;7.80;;
71091;SDS011;58751;50.708;7.134;2022-07-22T05:16:59;10.20;;;7.90;;
71091;SDS011;58751;50.708;7.134;2022-07-22T05:19:26;9.53;;;8.50;;
71091;SDS011;58751;50.708;7.134;2022-07-22T05:21:51;7.60;;;6.73;;
71091;SDS011;58751;50.708;7.134;2022-07-22T05:24:17;10.03;;;8.77;;
71091;SDS011;58751;50.708;7.134;2022-07-22T05:26:42;8.43;;;7.73;;
71091;SDS011;58751;50.708;7.134;2022-07-22T05:29:07;10.10;;;9.07;;
71091;SDS011;58751;50.708;7.134;2022-07-22T05:31:32;9.03;;;7.80;;
71091;SDS011;58751;50.708;7.134;2022-07-22T05:33:58;9.07;;;8.27;;
71091;SDS011;58751;50.708;7.134;2022-07-22T05:36:24;10.83;;;7.93;;
71091;SDS011;58751;50.708;7.134;2022-07-22T05:38:50;7.73;;;7.10;;
71091;SDS011;58751;50.708;7.134;2022-07-22T05:41:15;8.27;;;7.40;;
71091;SDS011;58751;50.708;7.134;2022-07-22T05:43:40;8.17;;;7.43;;
71091;SDS011;58751;50.708;7.134;2022-07-22T05:46:06;10.80;;;7.10;;
71091;SDS011;58751;50.708;7.134;2022-07-22T05:48:31;7.53;;;6.73;;
71091;SDS011;58751;50.708;7.134;2022-07-22T05:50:56;7.13;;;6.40;;
71091;SDS011;58751;50.708;7.134;2022-07-22T05:53:23;11.60;;;7.07;;
71091;SDS011;58751;50.708;7.134;2022-07-22T05:55:48;8.13;;;6.00;;
71091;SDS011;58751;50.708;7.134;2022-07-22T05:58:13;7.83;;;5.97;;
71091;SDS011;58751;50.708;7.134;2022-07-22T06:00:38;7.33;;;6.57;;
71091;SDS011;58751;50.708;7.134;2022-07-22T06:03:04;7.37;;;5.70;;
71091;SDS011;58751;50.708;7.134;2022-07-22T06:05:29;7.10;;;6.40;;
71091;SDS011;58751;50.708;7.134;2022-07-22T06:07:54;7.00;;;6.30;;
71091;SDS011;58751;50.708;7.134;2022-07-22T06:10:21;6.07;;;5.47;;
71091;SDS011;58751;50.708;7.134;2022-07-22T06:12:46;6.43;;;5.80;;
71091;SDS011;58751;50.708;7.134;2022-07-22T06:15:11;6.33;;;5.73;;
71091;SDS011;58751;50.708;7.134;2022-07-22T06:17:36;6.87;;;6.27;;
71091;SDS011;58751;50.708;7.134;2022-07-22T06:20:02;6.73;;;5.97;;
71091;SDS011;58751;50.708;7.134;2022-07-22T06:22:27;6.23;;;5.63;;
71091;SDS011;58751;50.708;7.134;2022-07-22T06:24:52;7.07;;;6.00;;
71091;SDS011;58751;50.708;7.134;2022-07-22T06:27:19;5.87;;;5.10;;
71091;SDS011;58751;50.708;7.134;2022-07-22T06:29:44;5.33;;;4.83;;
71091;SDS011;58751;50.708;7.134;2022-07-22T06:32:09;5.67;;;5.17;;
71091;SDS011;58751;50.708;7.134;2022-07-22T06:34:35;7.43;;;5.87;;
71091;SDS011;58751;50.708;7.134;2022-07-22T06:37:00;5.97;;;4.97;;
71091;SDS011;58751;50.708;7.134;2022-07-22T06:39:25;7.70;;;5.40;;
71091;SDS011;58751;50.708;7.134;2022-07-22T06:41:50;6.23;;;5.63;;
71091;SDS011;58751;50.708;7.134;2022-07-22T06:44:17;7.10;;;5.60;;
71091;SDS011;58751;50.708;7.134;2022-07-22T06:46:42;6.90;;;5.03;;
71091;SDS011;58751;50.708;7.134;2022-07-22T06:49:08;5.60;;;5.20;;
71091;SDS011;58751;50.708;7.134;2022-07-22T06:51:33;6.13;;;5.27;;
71091;SDS011;58751;50.708;7.134;2022-07-22T06:53:58;6.97;;;6.27;;
71091;SDS011;58751;50.708;7.134;2022-07-22T06:56:23;7.57;;;6.77;;
71091;SDS011;58751;50.708;7.134;2022-07-22T06:58:49;7.37;;;6.40;;
71091;SDS011;58751;50.708;7.134;2022-07-22T07:01:15;6.13;;;5.57;;
71091;SDS011;58751;50.708;7.134;2022-07-22T07:03:41;11.13;;;7.00;;
71091;SDS011;58751;50.708;7.134;2022-07-22T07:06:06;8.17;;;7.40;;
71091;SDS011;58751;50.708;7.134;2022-07-22T07:08:32;6.40;;;5.80;;
71091;SDS011;58751;50.708;7.134;2022-07-22T07:10:57;8.50;;;6.60;;
71091;SDS011;58751;50.708;7.134;2022-07-22T07:13:22;6.90;;;5.83;;
71091;SDS011;58751;50.708;7.134;2022-07-22T07:15:47;8.63;;;6.50;;
71091;SDS011;58751;50.708;7.134;2022-07-22T07:18:14;6.93;;;5.70;;
71091;SDS011;58751;50.708;7.134;2022-07-22T07:20:39;7.80;;;6.13;;
71091;SDS011;58751;50.708;7.134;2022-07-22T07:23:04;8.50;;;7.13;;
71091;SDS011;58751;50.708;7.134;2022-07-22T07:25:30;7.83;;;7.03;;
71091;SDS011;58751;50.708;7.134;2022-07-22T07:27:55;7.53;;;6.83;;
71091;SDS011;58751;50.708;7.134;2022-07-22T07:30:21;8.27;;;6.50;;
71091;SDS011;58751;50.708;7.134;2022-07-22T07:32:47;7.73;;;6.83;;
71091;SDS011;58751;50.708;7.134;2022-07-22T07:35:13;11.27;;;7.30;;
71091;SDS011;58751;50.708;7.134;2022-07-22T07:37:38;8.73;;;7.30;;
71091;SDS011;58751;50.708;7.134;2022-07-22T07:40:04;7.30;;;6.70;;
71091;SDS011;58751;50.708;7.134;2022-07-22T07:42:30;7.47;;;6.77;;
71091;SDS011;58751;50.708;7.134;2022-07-22T07:44:55;7.80;;;7.00;;
71091;SDS011;58751;50.708;7.134;2022-07-22T07:47:20;9.27;;;6.20;;
71091;SDS011;58751;50.708;7.134;2022-07-22T07:49:46;12.20;;;8.10;;
71091;SDS011;58751;50.708;7.134;2022-07-22T07:52:12;7.40;;;6.70;;
71091;SDS011;58751;50.708;7.134;2022-07-22T07:54:38;8.20;;;7.37;;
71091;SDS011;58751;50.708;7.134;2022-07-22T07:57:03;9.23;;;7.43;;
71091;SDS011;58751;50.708;7.134;2022-07-22T07:59:30;7.67;;;6.97;;
71091;SDS011;58751;50.708;7.134;2022-07-22T08:01:55;7.57;;;6.83;;
71091;SDS011;58751;50.708;7.134;2022-07-22T08:04:20;8.23;;;7.13;;
71091;SDS011;58751;50.708;7.134;2022-07-22T08:06:45;7.00;;;6.40;;
71091;SDS011;58751;50.708;7.134;2022-07-22T08:09:12;6.80;;;6.03;;
71091;SDS011;58751;50.708;7.134;2022-07-22T08:11:37;7.57;;;6.90;;
71091;SDS011;58751;50.708;7.134;2022-07-22T08:14:02;8.53;;;7.13;;
71091;SDS011;58751;50.708;7.134;2022-07-22T08:16:28;8.00;;;7.30;;
71091;SDS011;58751;50.708;7.134;2022-07-22T08:18:53;8.43;;;7.70;;
71091;SDS011;58751;50.708;7.134;2022-07-22T08:21:18;8.67;;;7.73;;
71091;SDS011;58751;50.708;7.134;2022-07-22T08:23:43;8.73;;;7.93;;
71091;SDS011;58751;50.708;7.134;2022-07-22T08:26:10;9.97;;;7.80;;
71091;SDS011;58751;50.708;7.134;2022-07-22T08:28:35;8.30;;;7.50;;
71091;SDS011;58751;50.708;7.134;2022-07-22T08:31:00;8.10;;;7.43;;
71091;SDS011;58751;50.708;7.134;2022-07-22T08:33:26;12.00;;;8.07;;
71091;SDS011;58751;50.708;7.134;2022-07-22T08:35:51;10.03;;;9.07;;
71091;SDS011;58751;50.708;7.134;2022-07-22T08:38:16;8.17;;;7.47;;
71091;SDS011;58751;50.708;7.134;2022-07-22T08:40:41;9.03;;;8.33;;
71091;SDS011;58751;50.708;7.134;2022-07-22T08:43:08;8.30;;;7.57;;
71091;SDS011;58751;50.708;7.134;2022-07-22T08:45:33;10.63;;;8.37;;
71091;SDS011;58751;50.708;7.134;2022-07-22T08:47:58;9.60;;;8.80;;
71091;SDS011;58751;50.708;7.134;2022-07-22T08:50:24;10.30;;;9.50;;
71091;SDS011;58751;50.708;7.134;2022-07-22T08:52:49;8.27;;;7.53;;
71091;SDS011;58751;50.708;7.134;2022-07-22T08:55:15;8.67;;;7.87;;
71091;SDS011;58751;50.708;7.134;2022-07-22T08:57:44;8.50;;;7.80;;
71091;SDS011;58751;50.708;7.134;2022-07-22T09:00:11;9.63;;;8.97;;
71091;SDS011;58751;50.708;7.134;2022-07-22T09:02:38;8.27;;;7.50;;
71091;SDS011;58751;50.708;7.134;2022-07-22T09:05:04;7.10;;;6.50;;
71091;SDS011;58751;50.708;7.134;2022-07-22T09:07:30;8.27;;;7.57;;
71091;SDS011;58751;50.708;7.134;2022-07-22T09:09:56;7.40;;;6.80;;
71091;SDS011;58751;50.708;7.134;2022-07-22T09:12:21;8.57;;;7.97;;
71091;SDS011;58751;50.708;7.134;2022-07-22T09:14:48;9.00;;;8.20;;
71091;SDS011;58751;50.708;7.134;2022-07-22T09:17:25;7.67;;;7.07;;
71091;SDS011;58751;50.708;7.134;2022-07-22T09:19:50;9.63;;;8.93;;
71091;SDS011;58751;50.708;7.134;2022-07-22T09:22:17;8.83;;;8.23;;
71091;SDS011;58751;50.708;7.134;2022-07-22T09:24:54;9.23;;;8.53;;
71091;SDS011;58751;50.708;7.134;2022-07-22T09:27:22;11.70;;;10.77;;
71091;SDS011;58751;50.708;7.134;2022-07-22T09:29:48;11.10;;;10.17;;
71091;SDS011;58751;50.708;7.134;2022-07-22T09:32:13;10.87;;;9.87;;
71091;SDS011;58751;50.708;7.134;2022-07-22T09:34:40;10.53;;;9.67;;
71091;SDS011;58751;50.708;7.134;2022-07-22T09:37:05;12.17;;;11.00;;
71091;SDS011;58751;50.708;7.134;2022-07-22T09:39:31;11.57;;;10.57;;
71091;SDS011;58751;50.708;7.134;2022-07-22T09:41:56;11.03;;;9.93;;
71091;SDS011;58751;50.708;7.134;2022-07-22T09:44:22;9.67;;;8.97;;
71091;SDS011;58751;50.708;7.134;2022-07-22T09:46:47;10.60;;;9.80;;
71091;SDS011;58751;50.708;7.134;2022-07-22T09:49:13;9.80;;;8.80;;
71091;SDS011;58751;50.708;7.134;2022-07-22T09:51:55;12.73;;;10.83;;
71091;SDS011;58751;50.708;7.134;2022-07-22T09:54:21;12.13;;;10.97;;
71091;SDS011;58751;50.708;7.134;2022-07-22T09:56:47;10.67;;;9.80;;
71091;SDS011;58751;50.708;7.134;2022-07-22T09:59:12;9.67;;;8.97;;
71091;SDS011;58751;50.708;7.134;2022-07-22T10:01:37;10.90;;;10.10;;
71091;SDS011;58751;50.708;7.134;2022-07-22T10:04:03;11.13;;;10.13;;
71091;SDS011;58751;50.708;7.134;2022-07-22T10:06:29;11.23;;;10.33;;
71091;SDS011;58751;50.708;7.134;2022-07-22T10:08:56;12.37;;;11.13;;
71091;SDS011;58751;50.708;7.134;2022-07-22T10:11:21;13.03;;;11.93;;
71091;SDS011;58751;50.708;7.134;2022-07-22T10:13:47;11.83;;;10.80;;
71091;SDS011;58751;50.708;7.134;2022-07-22T10:16:13;11.50;;;10.60;;
71091;SDS011;58751;50.708;7.134;2022-07-22T10:18:40;11.77;;;10.77;;
71091;SDS011;58751;50.708;7.134;2022-07-22T10:21:09;10.67;;;9.60;;
71091;SDS011;58751;50.708;7.134;2022-07-22T10:23:35;11.27;;;10.27;;
71091;SDS011;58751;50.708;7.134;2022-07-22T10:26:02;11.20;;;10.33;;
71091;SDS011;58751;50.708;7.134;2022-07-22T10:28:28;11.63;;;10.73;;
71091;SDS011;58751;50.708;7.134;2022-07-22T10:31:07;11.73;;;10.73;;
71091;SDS011;58751;50.708;7.134;2022-07-22T10:33:41;10.90;;;10.10;;
71091;SDS011;58751;50.708;7.134;2022-07-22T10:36:06;11.80;;;10.83;;
71091;SDS011;58751;50.708;7.134;2022-07-22T10:38:32;11.47;;;10.50;;
71091;SDS011;58751;50.708;7.134;2022-07-22T10:40:58;10.23;;;9.43;;
71091;SDS011;58751;50.708;7.134;2022-07-22T10:43:25;12.63;;;11.53;;
71091;SDS011;58751;50.708;7.134;2022-07-22T10:45:51;12.03;;;11.03;;
71091;SDS011;58751;50.708;7.134;2022-07-22T10:48:18;11.00;;;10.10;;
71091;SDS011;58751;50.708;7.134;2022-07-22T10:50:53;11.03;;;10.23;;
71091;SDS011;58751;50.708;7.134;2022-07-22T10:53:20;11.27;;;10.47;;
71091;SDS011;58751;50.708;7.134;2022-07-22T10:56:01;11.27;;;10.37;;
71091;SDS011;58751;50.708;7.134;2022-07-22T11:01:12;11.97;;;11.07;;
71091;SDS011;58751;50.708;7.134;2022-07-22T11:03:38;11.93;;;10.73;;
71091;SDS011;58751;50.708;7.134;2022-07-22T11:06:13;12.50;;;11.53;;
71091;SDS011;58751;50.708;7.134;2022-07-22T11:08:39;12.60;;;10.20;;
71091;SDS011;58751;50.708;7.134;2022-07-22T11:11:04;12.20;;;11.30;;
71091;SDS011;58751;50.708;7.134;2022-07-22T11:13:30;12.17;;;11.07;;
71091;SDS011;58751;50.708;7.134;2022-07-22T11:15:55;12.60;;;11.47;;
71091;SDS011;58751;50.708;7.134;2022-07-22T11:18:22;11.33;;;10.53;;
71091;SDS011;58751;50.708;7.134;2022-07-22T11:20:47;10.57;;;9.80;;
71091;SDS011;58751;50.708;7.134;2022-07-22T11:23:13;10.40;;;9.60;;
71091;SDS011;58751;50.708;7.134;2022-07-22T11:25:38;10.10;;;9.30;;
71091;SDS011;58751;50.708;7.134;2022-07-22T11:28:03;12.97;;;11.90;;
71091;SDS011;58751;50.708;7.134;2022-07-22T11:30:29;12.93;;;11.87;;
71091;SDS011;58751;50.708;7.134;2022-07-22T11:32:54;11.73;;;10.83;;
71091;SDS011;58751;50.708;7.134;2022-07-22T11:35:20;12.33;;;11.33;;
71091;SDS011;58751;50.708;7.134;2022-07-22T11:37:54;11.27;;;10.47;;
71091;SDS011;58751;50.708;7.134;2022-07-22T11:40:20;13.97;;;12.77;;
71091;SDS011;58751;50.708;7.134;2022-07-22T11:42:45;13.20;;;12.20;;
71091;SDS011;58751;50.708;7.134;2022-07-22T11:45:10;13.23;;;12.03;;
71091;SDS011;58751;50.708;7.134;2022-07-22T11:47:36;12.43;;;11.37;;
71091;SDS011;58751;50.708;7.134;2022-07-22T11:50:01;13.33;;;12.33;;
71091;SDS011;58751;50.708;7.134;2022-07-22T11:52:27;14.83;;;13.53;;
71091;SDS011;58751;50.708;7.134;2022-07-22T11:54:53;13.87;;;12.77;;
71091;SDS011;58751;50.708;7.134;2022-07-22T11:57:18;13.33;;;12.23;;
71091;SDS011;58751;50.708;7.134;2022-07-22T11:59:43;14.97;;;13.67;;
71091;SDS011;58751;50.708;7.134;2022-07-22T12:02:09;12.70;;;11.70;;
71091;SDS011;58751;50.708;7.134;2022-07-22T12:04:34;11.83;;;10.83;;
71091;SDS011;58751;50.708;7.134;2022-07-22T12:07:00;15.97;;;14.77;;
71091;SDS011;58751;50.708;7.134;2022-07-22T12:09:28;16.47;;;15.17;;
71091;SDS011;58751;50.708;7.134;2022-07-22T12:11:55;15.47;;;14.37;;
71091;SDS011;58751;50.708;7.134;2022-07-22T12:14:21;14.80;;;13.70;;
71091;SDS011;58751;50.708;7.134;2022-07-22T12:16:52;15.93;;;14.70;;
71091;SDS011;58751;50.708;7.134;2022-07-22T12:19:18;17.13;;;15.83;;
71091;SDS011;58751;50.708;7.134;2022-07-22T12:21:49;15.87;;;14.53;;
71091;SDS011;58751;50.708;7.134;2022-07-22T12:24:15;14.50;;;13.40;;
71091;SDS011;58751;50.708;7.134;2022-07-22T12:26:43;15.93;;;14.30;;
71091;SDS011;58751;50.708;7.134;2022-07-22T12:29:15;13.97;;;12.97;;
71091;SDS011;58751;50.708;7.134;2022-07-22T12:31:41;15.60;;;14.53;;
71091;SDS011;58751;50.708;7.134;2022-07-22T12:34:06;15.07;;;13.97;;
71091;SDS011;58751;50.708;7.134;2022-07-22T12:36:32;15.70;;;14.60;;
71091;SDS011;58751;50.708;7.134;2022-07-22T12:38:58;14.70;;;13.43;;
71091;SDS011;58751;50.708;7.134;2022-07-22T12:41:43;15.77;;;14.57;;
71091;SDS011;58751;50.708;7.134;2022-07-22T12:44:15;14.50;;;13.33;;
71091;SDS011;58751;50.708;7.134;2022-07-22T12:46:43;14.83;;;13.73;;
71091;SDS011;58751;50.708;7.134;2022-07-22T12:49:09;15.13;;;13.70;;
71091;SDS011;58751;50.708;7.134;2022-07-22T12:51:35;15.57;;;14.13;;
71091;SDS011;58751;50.708;7.134;2022-07-22T12:54:01;15.07;;;14.00;;
71091;SDS011;58751;50.708;7.134;2022-07-22T12:56:26;15.20;;;14.10;;
71091;SDS011;58751;50.708;7.134;2022-07-22T12:58:51;15.17;;;14.07;;
71091;SDS011;58751;50.708;7.134;2022-07-22T13:01:18;15.70;;;14.40;;
71091;SDS011;58751;50.708;7.134;2022-07-22T13:03:43;14.40;;;13.30;;
71091;SDS011;58751;50.708;7.134;2022-07-22T13:06:08;14.63;;;13.53;;
71091;SDS011;58751;50.708;7.134;2022-07-22T13:08:33;13.20;;;12.13;;
71091;SDS011;58751;50.708;7.134;2022-07-22T13:10:58;13.10;;;12.20;;
71091;SDS011;58751;50.708;7.134;2022-07-22T13:13:24;12.30;;;11.50;;
71091;SDS011;58751;50.708;7.134;2022-07-22T13:15:49;11.87;;;11.00;;
71091;SDS011;58751;50.708;7.134;2022-07-22T13:18:16;12.30;;;11.40;;
71091;SDS011;58751;50.708;7.134;2022-07-22T13:20:41;11.67;;;10.83;;
71091;SDS011;58751;50.708;7.134;2022-07-22T13:23:07;13.97;;;12.67;;
71091;SDS011;58751;50.708;7.134;2022-07-22T13:25:32;12.23;;;11.00;;
71091;SDS011;58751;50.708;7.134;2022-07-22T13:27:57;12.17;;;11.27;;
71091;SDS011;58751;50.708;7.134;2022-07-22T13:30:23;11.80;;;10.90;;
71091;SDS011;58751;50.708;7.134;2022-07-22T13:32:48;12.03;;;11.13;;
71091;SDS011;58751;50.708;7.134;2022-07-22T13:35:15;11.20;;;10.40;;
71091;SDS011;58751;50.708;7.134;2022-07-22T13:37:40;10.87;;;9.97;;
71091;SDS011;58751;50.708;7.134;2022-07-22T13:40:06;12.37;;;11.40;;
71091;SDS011;58751;50.708;7.134;2022-07-22T13:42:31;10.23;;;9.43;;
71091;SDS011;58751;50.708;7.134;2022-07-22T13:44:56;11.30;;;10.30;;
71091;SDS011;58751;50.708;7.134;2022-07-22T13:47:22;10.83;;;9.93;;
71091;SDS011;58751;50.708;7.134;2022-07-22T13:49:47;10.83;;;9.93;;
71091;SDS011;58751;50.708;7.134;2022-07-22T13:52:14;10.47;;;9.67;;
71091;SDS011;58751;50.708;7.134;2022-07-22T13:54:39;10.40;;;9.70;;
71091;SDS011;58751;50.708;7.134;2022-07-22T13:57:04;10.50;;;9.80;;
71091;SDS011;58751;50.708;7.134;2022-07-22T13:59:29;10.30;;;9.60;;
71091;SDS011;58751;50.708;7.134;2022-07-22T14:01:55;9.67;;;8.70;;
71091;SDS011;58751;50.708;7.134;2022-07-22T14:04:20;10.93;;;10.10;;
71091;SDS011;58751;50.708;7.134;2022-07-22T14:06:45;11.30;;;10.50;;
71091;SDS011;58751;50.708;7.134;2022-07-22T14:09:12;10.60;;;9.80;;
71091;SDS011;58751;50.708;7.134;2022-07-22T14:11:37;11.40;;;10.60;;
71091;SDS011;58751;50.708;7.134;2022-07-22T14:14:02;10.40;;;9.33;;
71091;SDS011;58751;50.708;7.134;2022-07-22T14:16:27;9.40;;;8.60;;
71091;SDS011;58751;50.708;7.134;2022-07-22T14:18:53;9.30;;;8.70;;
71091;SDS011;58751;50.708;7.134;2022-07-22T14:21:18;9.30;;;8.70;;
71091;SDS011;58751;50.708;7.134;2022-07-22T14:23:43;10.37;;;9.57;;
71091;SDS011;58751;50.708;7.134;2022-07-22T14:26:10;9.10;;;8.43;;
71091;SDS011;58751;50.708;7.134;2022-07-22T14:28:35;10.23;;;9.33;;
71091;SDS011;58751;50.708;7.134;2022-07-22T14:31:00;9.93;;;9.13;;